createdAt,value
2022-11-14T00:01:01.602Z,89.69
2022-11-14T00:03:53.480Z,89.79
2022-11-14T00:06:44.575Z,89.57
2022-11-14T00:09:35.648Z,89.30
2022-11-14T00:12:26.433Z,88.78
2022-11-14T00:15:18.464Z,88.71
2022-11-14T00:18:09.983Z,88.59
2022-11-14T00:21:01.080Z,88.64
2022-11-14T00:23:52.161Z,88.77
2022-11-14T00:26:43.098Z,89.00
2022-11-14T00:29:33.766Z,88.44
2022-11-14T00:32:24.137Z,88.62
2022-11-14T00:35:15.097Z,88.65
2022-11-14T00:38:05.722Z,88.30
2022-11-14T00:40:56.201Z,87.72
2022-11-14T00:43:46.773Z,87.60
2022-11-14T00:46:38.625Z,87.13
2022-11-14T00:49:29.019Z,87.44
2022-11-14T00:52:19.747Z,87.51
2022-11-14T00:55:11.859Z,87.90
2022-11-14T00:58:02.638Z,88.04
2022-11-14T01:00:54.668Z,88.21
2022-11-14T01:03:48.313Z,87.65
2022-11-14T01:06:38.483Z,87.28
2022-11-14T01:09:29.368Z,87.40
2022-11-14T01:12:20.164Z,87.12
2022-11-14T01:15:12.129Z,87.30
2022-11-14T01:18:02.936Z,87.37
2022-11-14T01:20:54.070Z,87.59
2022-11-14T01:23:44.981Z,87.68
2022-11-14T01:26:36.073Z,87.63
2022-11-14T01:29:27.076Z,87.34
2022-11-14T01:32:18.037Z,87.19
2022-11-14T01:35:09.251Z,86.62
2022-11-14T01:38:00.186Z,86.28
2022-11-14T01:40:51.038Z,86.84
2022-11-14T01:43:42.696Z,86.88
2022-11-14T01:46:37.924Z,86.67
2022-11-14T01:49:33.823Z,86.70
2022-11-14T01:52:27.033Z,87.02
2022-11-14T01:55:17.893Z,86.97
2022-11-14T01:58:09.669Z,86.77
2022-11-14T02:01:00.937Z,86.75
2022-11-14T02:03:54.689Z,86.40
2022-11-14T02:06:46.118Z,86.36
2022-11-14T02:09:39.475Z,86.29
2022-11-14T02:12:30.198Z,86.30
2022-11-14T02:15:21.268Z,86.24
2022-11-14T02:18:12.730Z,86.62
2022-11-14T02:21:03.410Z,86.50
2022-11-14T02:23:54.110Z,86.07
2022-11-14T02:26:45.684Z,86.09
2022-11-14T02:29:37.361Z,85.86
2022-11-14T02:32:28.454Z,86.03
2022-11-14T02:35:23.578Z,85.89
2022-11-14T02:38:14.563Z,85.94
2022-11-14T02:41:05.673Z,86.49
2022-11-14T02:43:56.303Z,86.42
2022-11-14T02:46:47.054Z,85.90
2022-11-14T02:49:37.681Z,85.88
2022-11-14T02:52:28.689Z,85.72
2022-11-14T02:55:19.094Z,85.02
2022-11-14T02:58:10.021Z,85.32
2022-11-14T03:01:19.596Z,85.43
2022-11-14T03:04:11.038Z,85.26
2022-11-14T03:07:01.773Z,85.45
2022-11-14T03:09:52.238Z,85.80
2022-11-14T03:12:42.759Z,85.66
2022-11-14T03:15:33.303Z,85.74
2022-11-14T03:18:24.036Z,85.82
2022-11-14T03:21:16.329Z,85.69
2022-11-14T03:24:07.898Z,85.34
2022-11-14T03:26:58.627Z,85.19
2022-11-14T03:29:49.134Z,85.19
2022-11-14T03:32:39.981Z,85.21
2022-11-14T03:35:30.685Z,85.32
2022-11-14T03:38:23.219Z,85.55
2022-11-14T03:41:13.782Z,85.54
2022-11-14T03:44:04.819Z,85.62
2022-11-14T03:46:55.223Z,85.02
2022-11-14T03:49:45.845Z,84.26
2022-11-14T03:52:36.671Z,84.57
2022-11-14T03:55:27.297Z,84.71
2022-11-14T03:58:17.972Z,84.67
2022-11-14T04:01:08.769Z,84.82
2022-11-14T04:03:59.608Z,84.79
2022-11-14T04:06:49.862Z,85.02
2022-11-14T04:09:40.784Z,85.23
2022-11-14T04:12:31.661Z,85.13
2022-11-14T04:15:22.713Z,84.29
2022-11-14T04:18:13.200Z,84.22
2022-11-14T04:21:03.724Z,84.58
2022-11-14T04:23:54.683Z,84.37
2022-11-14T04:26:45.079Z,84.27
2022-11-14T04:29:35.812Z,84.35
2022-11-14T04:32:26.790Z,84.33
2022-11-14T04:35:17.546Z,84.66
2022-11-14T04:38:07.967Z,84.95
2022-11-14T04:40:59.260Z,84.32
2022-11-14T04:43:50.929Z,84.49
2022-11-14T04:46:41.630Z,83.85
2022-11-14T04:49:32.212Z,83.67
2022-11-14T04:52:22.776Z,83.51
2022-11-14T04:55:13.311Z,83.63
2022-11-14T04:58:03.934Z,83.94
2022-11-14T05:00:54.868Z,84.09
2022-11-14T05:03:45.497Z,84.27
2022-11-14T05:06:36.275Z,84.32
2022-11-14T05:09:26.976Z,84.18
2022-11-14T05:12:17.398Z,83.97
2022-11-14T05:15:10.964Z,83.70
2022-11-14T05:18:01.595Z,83.55
2022-11-14T05:20:51.915Z,83.79
2022-11-14T05:23:42.572Z,83.76
2022-11-14T05:26:33.406Z,83.55
2022-11-14T05:29:24.485Z,83.12
2022-11-14T05:32:16.460Z,83.69
2022-11-14T05:35:09.716Z,83.74
2022-11-14T05:38:03.144Z,83.88
2022-11-14T05:40:53.848Z,84.03
2022-11-14T05:43:45.446Z,83.80
2022-11-14T05:46:36.074Z,82.92
2022-11-14T05:49:27.059Z,83.20
2022-11-14T05:52:17.865Z,83.11
2022-11-14T05:55:10.383Z,83.07
2022-11-14T05:58:01.931Z,82.90
2022-11-14T06:00:54.578Z,83.14
2022-11-14T06:03:48.687Z,83.12
2022-11-14T06:06:39.235Z,83.36
2022-11-14T06:09:30.030Z,83.16
2022-11-14T06:12:20.874Z,83.09
2022-11-14T06:15:12.871Z,82.97
2022-11-14T06:18:03.412Z,82.65
2022-11-14T06:20:54.108Z,82.68
2022-11-14T06:23:45.403Z,82.75
2022-11-14T06:26:36.412Z,82.89
2022-11-14T06:29:31.337Z,82.86
2022-11-14T06:32:24.905Z,82.80
2022-11-14T06:35:15.302Z,82.60
2022-11-14T06:38:06.136Z,82.64
2022-11-14T06:41:04.643Z,82.01
2022-11-14T06:43:55.345Z,81.77
2022-11-14T06:46:46.282Z,82.16
2022-11-14T06:49:40.526Z,82.43
2022-11-14T06:52:31.884Z,82.46
2022-11-14T06:55:25.562Z,82.76
2022-11-14T06:58:16.569Z,82.58
2022-11-14T07:01:09.420Z,82.55
2022-11-14T07:04:00.761Z,82.41
2022-11-14T07:06:51.345Z,82.16
2022-11-14T07:09:42.320Z,82.04
2022-11-14T07:12:32.992Z,82.08
2022-11-14T07:15:23.753Z,81.26
2022-11-14T07:18:15.063Z,81.84
2022-11-14T07:21:07.491Z,81.98
2022-11-14T07:23:58.958Z,82.18
2022-11-14T07:26:49.712Z,82.26
2022-11-14T07:29:40.417Z,82.08
2022-11-14T07:32:30.862Z,81.94
2022-11-14T07:35:21.717Z,82.02
2022-11-14T07:38:12.368Z,81.54
2022-11-14T07:41:05.377Z,82.08
2022-11-14T07:43:57.307Z,81.83
2022-11-14T07:46:48.421Z,81.80
2022-11-14T07:49:39.354Z,82.24
2022-11-14T07:52:31.497Z,82.30
2022-11-14T07:55:23.242Z,81.96
2022-11-14T07:58:13.843Z,82.15
2022-11-14T08:01:05.770Z,81.98
2022-11-14T08:03:56.400Z,81.71
2022-11-14T08:06:46.923Z,81.85
2022-11-14T08:09:37.474Z,81.79
2022-11-14T08:12:28.099Z,81.97
2022-11-14T08:15:19.878Z,81.94
2022-11-14T08:18:10.273Z,81.84
2022-11-14T08:21:00.721Z,81.77
2022-11-14T08:23:51.166Z,82.16
2022-11-14T08:26:41.947Z,82.02
2022-11-14T08:29:32.728Z,81.64
2022-11-14T08:32:23.428Z,81.64
2022-11-14T08:35:13.979Z,81.87
2022-11-14T08:38:04.975Z,81.49
2022-11-14T08:40:58.766Z,81.71
2022-11-14T08:43:49.492Z,81.09
2022-11-14T08:46:39.913Z,81.00
2022-11-14T08:49:31.026Z,80.81
2022-11-14T08:52:22.239Z,81.64
2022-11-14T08:55:13.048Z,81.58
2022-11-14T08:58:03.800Z,80.81
2022-11-14T09:00:54.284Z,80.50
2022-11-14T09:03:45.625Z,80.69
2022-11-14T09:06:36.318Z,81.00
2022-11-14T09:09:27.123Z,81.30
2022-11-14T09:12:18.286Z,81.20
2022-11-14T09:15:12.381Z,81.21
2022-11-14T09:18:02.790Z,81.24
2022-11-14T09:20:53.262Z,81.36
2022-11-14T09:23:43.898Z,81.28
2022-11-14T09:26:35.057Z,81.30
2022-11-14T09:29:25.830Z,81.08
2022-11-14T09:32:16.816Z,81.24
2022-11-14T09:35:08.784Z,81.35
2022-11-14T09:38:07.206Z,81.35
2022-11-14T09:41:13.014Z,81.66
2022-11-14T09:44:10.966Z,81.25
2022-11-14T09:47:03.995Z,81.29
2022-11-14T09:50:02.290Z,81.36
2022-11-14T09:52:58.071Z,80.04
2022-11-14T09:55:49.236Z,80.09
2022-11-14T09:58:41.299Z,79.90
2022-11-14T10:01:39.871Z,80.20
2022-11-14T10:04:45.357Z,80.93
2022-11-14T10:07:47.682Z,80.70
2022-11-14T10:10:51.338Z,80.60
2022-11-14T10:14:04.211Z,80.87
2022-11-14T10:17:10.717Z,80.22
2022-11-14T10:20:11.321Z,80.25
2022-11-14T10:23:17.714Z,80.47
2022-11-14T10:26:16.717Z,80.37
2022-11-14T10:29:36.881Z,80.71
2022-11-14T10:32:43.329Z,80.71
2022-11-14T10:35:40.396Z,80.86
2022-11-14T10:38:36.384Z,80.66
2022-11-14T10:41:54.909Z,80.81
2022-11-14T10:44:46.410Z,80.32
2022-11-14T10:47:41.143Z,80.04
2022-11-14T10:50:39.411Z,79.91
2022-11-14T10:53:39.524Z,79.72
2022-11-14T10:56:30.724Z,80.18
2022-11-14T10:59:22.195Z,80.23
2022-11-14T11:02:13.308Z,79.77
2022-11-14T11:05:19.833Z,80.25
2022-11-14T11:08:47.690Z,80.12
2022-11-14T11:11:41.996Z,79.75
2022-11-14T11:14:33.208Z,79.55
2022-11-14T11:17:31.379Z,79.84
2022-11-14T11:20:32.740Z,80.09
2022-11-14T11:23:27.258Z,80.19
2022-11-14T11:26:24.848Z,80.19
2022-11-14T11:29:20.948Z,80.34
2022-11-14T11:32:12.089Z,80.11
2022-11-14T11:35:05.248Z,79.58
2022-11-14T11:38:00.282Z,79.17
2022-11-14T11:40:55.516Z,79.38
2022-11-14T11:43:47.135Z,79.95
2022-11-14T11:46:47.261Z,80.35
2022-11-14T11:49:50.060Z,80.08
2022-11-14T11:52:51.244Z,80.37
2022-11-14T11:55:45.301Z,80.19
2022-11-14T11:58:44.837Z,80.15
2022-11-14T12:01:35.666Z,79.86
2022-11-14T12:04:27.393Z,79.17
2022-11-14T12:07:23.338Z,79.10
2022-11-14T12:10:22.932Z,79.46
2022-11-14T12:13:43.535Z,79.72
2022-11-14T12:16:58.635Z,79.57
2022-11-14T12:20:10.125Z,79.75
2022-11-14T12:23:26.070Z,79.46
2022-11-14T12:26:36.667Z,79.73
2022-11-14T12:29:46.057Z,79.67
2022-11-14T12:32:43.339Z,79.10
2022-11-14T12:35:36.553Z,79.28
2022-11-14T12:38:31.602Z,79.27
2022-11-14T12:41:28.373Z,79.69
2022-11-14T12:44:33.500Z,79.56
2022-11-14T12:47:26.549Z,79.53
2022-11-14T12:50:43.642Z,79.10
2022-11-14T12:53:45.101Z,79.70
2022-11-14T12:57:05.286Z,79.50
2022-11-14T13:00:05.881Z,79.47
2022-11-14T13:03:22.210Z,79.37
2022-11-14T13:06:19.621Z,78.78
2022-11-14T13:09:32.395Z,78.56
2022-11-14T13:12:48.510Z,78.98
2022-11-14T13:16:09.760Z,79.00
2022-11-14T13:19:30.844Z,79.21
2022-11-14T13:22:39.161Z,79.41
2022-11-14T13:25:29.806Z,79.39
2022-11-14T13:28:48.673Z,79.27
2022-11-14T13:31:51.567Z,78.94
2022-11-14T13:34:48.206Z,78.98
2022-11-14T13:38:03.254Z,79.00
2022-11-14T13:41:03.020Z,79.12
2022-11-14T13:44:21.185Z,78.98
2022-11-14T13:47:30.276Z,79.16
2022-11-14T13:50:26.586Z,79.00
2022-11-14T13:53:23.944Z,79.07
2022-11-14T13:56:35.488Z,79.31
2022-11-14T13:59:46.713Z,78.74
2022-11-14T14:03:01.772Z,78.89
2022-11-14T14:06:21.272Z,78.97
2022-11-14T14:09:21.728Z,78.53
2022-11-14T14:12:31.299Z,78.40
2022-11-14T14:15:31.453Z,79.13
2022-11-14T14:18:33.657Z,78.82
2022-11-14T14:21:36.354Z,78.91
2022-11-14T14:24:41.204Z,78.94
2022-11-14T14:27:39.142Z,78.60
2022-11-14T14:30:29.961Z,78.66
2022-11-14T14:33:20.644Z,78.71
2022-11-14T14:36:25.714Z,78.71
2022-11-14T14:39:21.277Z,78.93
2022-11-14T14:42:14.461Z,78.91
2022-11-14T14:45:06.879Z,79.06
2022-11-14T14:48:05.084Z,79.11
2022-11-14T14:50:57.349Z,79.22
2022-11-14T14:53:55.141Z,79.01
2022-11-14T14:56:55.832Z,78.85
2022-11-14T14:59:46.582Z,78.89
2022-11-14T15:02:37.515Z,78.45
2022-11-14T15:05:30.558Z,78.35
2022-11-14T15:08:21.355Z,78.57
2022-11-14T15:11:12.593Z,78.55
2022-11-14T15:14:04.347Z,78.65
2022-11-14T15:16:56.507Z,78.77
2022-11-14T15:19:48.750Z,78.77
2022-11-14T15:22:39.347Z,78.71
2022-11-14T15:25:30.230Z,78.84
2022-11-14T15:28:22.673Z,78.62
2022-11-14T15:31:20.978Z,78.35
2022-11-14T15:34:26.813Z,78.38
2022-11-14T15:37:25.067Z,78.54
2022-11-14T15:40:21.737Z,78.53
2022-11-14T15:43:39.190Z,78.42
2022-11-14T15:46:40.166Z,78.55
2022-11-14T15:49:31.171Z,78.77
2022-11-14T15:52:25.891Z,78.80
2022-11-14T15:55:18.822Z,78.93
2022-11-14T15:58:27.873Z,78.80
2022-11-14T16:01:24.192Z,78.40
2022-11-14T16:04:18.500Z,78.39
2022-11-14T16:07:11.388Z,78.52
2022-11-14T16:10:02.130Z,78.39
2022-11-14T16:12:53.082Z,78.75
2022-11-14T16:15:43.513Z,78.93
2022-11-14T16:18:33.864Z,78.92
2022-11-14T16:21:24.586Z,79.17
2022-11-14T16:24:21.306Z,78.90
2022-11-14T16:27:12.034Z,78.42
2022-11-14T16:30:02.893Z,78.43
2022-11-14T16:32:54.669Z,78.47
2022-11-14T16:35:45.885Z,78.66
2022-11-14T16:38:36.199Z,78.81
2022-11-14T16:41:26.636Z,78.96
2022-11-14T16:44:18.742Z,78.98
2022-11-14T16:47:09.693Z,78.93
2022-11-14T16:50:01.547Z,78.80
2022-11-14T16:52:52.457Z,79.01
2022-11-14T16:55:47.483Z,78.59
2022-11-14T16:58:40.055Z,78.68
2022-11-14T17:01:30.446Z,78.77
2022-11-14T17:04:21.103Z,78.91
2022-11-14T17:07:13.467Z,79.22
2022-11-14T17:10:05.242Z,78.97
2022-11-14T17:12:55.618Z,78.97
2022-11-14T17:15:46.605Z,79.22
2022-11-14T17:18:38.995Z,79.09
2022-11-14T17:21:30.229Z,78.87
2022-11-14T17:24:20.633Z,78.68
2022-11-14T17:27:13.044Z,78.63
2022-11-14T17:30:04.258Z,78.86
2022-11-14T17:32:56.661Z,79.02
2022-11-14T17:35:47.362Z,79.21
2022-11-14T17:38:38.973Z,79.36
2022-11-14T17:41:29.901Z,79.32
2022-11-14T17:44:20.465Z,79.32
2022-11-14T17:47:10.914Z,79.50
2022-11-14T17:50:01.637Z,79.15
2022-11-14T17:52:52.272Z,78.89
2022-11-14T17:55:42.897Z,78.89
2022-11-14T17:58:35.059Z,78.76
2022-11-14T18:01:28.819Z,78.86
2022-11-14T18:04:19.777Z,79.17
2022-11-14T18:07:10.521Z,79.19
2022-11-14T18:10:01.291Z,79.22
2022-11-14T18:12:51.681Z,79.35
2022-11-14T18:15:41.869Z,78.96
2022-11-14T18:18:34.306Z,78.89
2022-11-14T18:21:26.586Z,78.75
2022-11-14T18:24:17.355Z,78.89
2022-11-14T18:27:08.279Z,79.11
2022-11-14T18:30:13.408Z,79.20
2022-11-14T18:33:04.224Z,79.29
2022-11-14T18:36:02.070Z,79.44
2022-11-14T18:38:53.157Z,79.30
2022-11-14T18:41:44.397Z,78.90
2022-11-14T18:44:34.900Z,78.82
2022-11-14T18:47:25.495Z,78.99
2022-11-14T18:50:16.848Z,79.05
2022-11-14T18:53:07.490Z,79.09
2022-11-14T18:55:58.885Z,79.46
2022-11-14T18:58:53.223Z,79.42
2022-11-14T19:01:43.992Z,79.58
2022-11-14T19:04:35.241Z,79.61
2022-11-14T19:07:26.320Z,79.51
2022-11-14T19:10:16.983Z,79.00
2022-11-14T19:13:07.734Z,78.87
2022-11-14T19:16:03.713Z,79.08
2022-11-14T19:18:54.080Z,79.12
2022-11-14T19:21:45.014Z,79.37
2022-11-14T19:24:35.743Z,79.39
2022-11-14T19:27:26.499Z,79.38
2022-11-14T19:30:18.225Z,79.52
2022-11-14T19:33:09.183Z,79.44
2022-11-14T19:36:05.469Z,79.36
2022-11-14T19:38:58.397Z,79.21
2022-11-14T19:41:49.155Z,78.94
2022-11-14T19:44:39.495Z,79.21
2022-11-14T19:47:29.828Z,79.26
2022-11-14T19:50:20.670Z,79.47
2022-11-14T19:53:11.426Z,79.69
2022-11-14T19:56:07.440Z,79.52
2022-11-14T19:58:57.773Z,79.48
2022-11-14T20:01:55.608Z,79.33
2022-11-14T20:04:47.941Z,79.34
2022-11-14T20:07:38.710Z,78.92
2022-11-14T20:10:29.390Z,78.95
2022-11-14T20:13:19.889Z,79.06
2022-11-14T20:16:14.173Z,79.24
2022-11-14T20:19:05.387Z,79.19
2022-11-14T20:21:56.321Z,79.33
2022-11-14T20:24:46.983Z,79.42
2022-11-14T20:27:37.725Z,79.51
2022-11-14T20:30:28.508Z,79.44
2022-11-14T20:33:19.106Z,79.53
2022-11-14T20:36:13.323Z,79.04
2022-11-14T20:39:03.918Z,78.93
2022-11-14T20:41:54.374Z,79.14
2022-11-14T20:44:45.380Z,79.35
2022-11-14T20:47:36.770Z,79.50
2022-11-14T20:50:27.649Z,79.36
2022-11-14T20:53:18.432Z,79.58
2022-11-14T20:56:10.643Z,79.45
2022-11-14T20:59:01.474Z,79.36
2022-11-14T21:01:52.705Z,79.43
2022-11-14T21:04:43.623Z,79.05
2022-11-14T21:07:34.651Z,79.03
2022-11-14T21:10:43.305Z,79.17
2022-11-14T21:13:53.008Z,79.19
2022-11-14T21:16:44.170Z,79.16
2022-11-14T21:19:35.382Z,79.46
2022-11-14T21:22:26.266Z,79.51
2022-11-14T21:25:16.839Z,79.67
2022-11-14T21:28:07.484Z,79.81
2022-11-14T21:31:00.771Z,79.19
2022-11-14T21:33:53.637Z,79.17
2022-11-14T21:36:46.081Z,79.09
2022-11-14T21:39:37.446Z,79.09
2022-11-14T21:42:28.180Z,79.18
2022-11-14T21:45:19.108Z,79.27
2022-11-14T21:48:09.917Z,79.65
2022-11-14T21:51:07.580Z,79.48
2022-11-14T21:54:00.051Z,79.19
2022-11-14T21:56:50.702Z,79.40
2022-11-14T21:59:41.717Z,79.44
2022-11-14T22:02:49.639Z,79.10
2022-11-14T22:05:39.762Z,78.76
2022-11-14T22:08:30.739Z,78.81
2022-11-14T22:11:21.520Z,79.04
2022-11-14T22:14:12.325Z,79.33
2022-11-14T22:17:04.432Z,79.27
2022-11-14T22:19:55.548Z,79.34
2022-11-14T22:23:13.925Z,79.46
2022-11-14T22:26:04.909Z,79.62
2022-11-14T22:28:55.928Z,79.44
2022-11-14T22:31:46.821Z,79.28
2022-11-14T22:34:41.895Z,79.06
2022-11-14T22:37:39.183Z,79.23
2022-11-14T22:40:32.478Z,79.13
2022-11-14T22:43:23.608Z,79.30
2022-11-14T22:46:17.001Z,79.31
2022-11-14T22:49:17.128Z,79.44
2022-11-14T22:52:13.850Z,79.57
2022-11-14T22:55:05.059Z,79.52
2022-11-14T22:57:58.011Z,79.63
2022-11-14T23:00:51.949Z,79.69
2022-11-14T23:03:45.735Z,79.60
2022-11-14T23:06:37.754Z,79.30
2022-11-14T23:09:32.459Z,79.17
2022-11-14T23:12:23.571Z,79.26
2022-11-14T23:15:16.494Z,79.32
2022-11-14T23:18:12.274Z,79.35
2022-11-14T23:21:08.623Z,79.01
2022-11-14T23:24:01.557Z,79.32
2022-11-14T23:26:52.748Z,79.59
2022-11-14T23:29:45.707Z,79.33
2022-11-14T23:32:37.964Z,79.42
2022-11-14T23:35:28.895Z,79.53
2022-11-14T23:38:20.312Z,79.33
2022-11-14T23:41:18.827Z,79.38
2022-11-14T23:44:09.629Z,79.41
2022-11-14T23:47:02.712Z,79.39
2022-11-14T23:49:53.006Z,79.34
2022-11-14T23:52:43.862Z,79.45
2022-11-14T23:55:34.877Z,79.41
2022-11-14T23:58:27.144Z,79.68
